Terminal Aerodrome Forecast
Issued by NWS Topeka, KS

Home | Current Version | Previous Version | Graphics & Text | Print | Product List | Glossary On
Versions: 1 2 3 4 5 6 7 8 9 10 11 12 13 14 15 16 17 18 19
000
FTUS43 KTOP 212339
TAFTOP
TAF
KTOP 212339Z 2200/2224 28006KT P6SM FEW250
     FM221300 20004KT P6SM VCSH OVC120
     FM221800 25010KT P6SM OVC080=

USA.gov is the U.S. government's official web portal to all federal, state and local government web resources and services.